createdAt,value
2023-05-19T00:01:31.329Z,84.52
2023-05-19T00:04:21.412Z,84.31
2023-05-19T00:07:12.294Z,84.15
2023-05-19T00:10:01.009Z,84.61
2023-05-19T00:12:50.558Z,85.01
2023-05-19T00:15:41.671Z,84.85
2023-05-19T00:18:31.298Z,85.30
2023-05-19T00:21:21.191Z,85.13
2023-05-19T00:24:09.268Z,85.42
2023-05-19T00:26:57.239Z,85.64
2023-05-19T00:29:45.277Z,86.24
2023-05-19T00:32:33.268Z,86.68
2023-05-19T00:35:21.865Z,85.86
2023-05-19T00:38:11.197Z,86.13
2023-05-19T00:40:59.503Z,85.70
2023-05-19T00:43:47.675Z,86.11
2023-05-19T00:46:35.729Z,86.58
2023-05-19T00:49:23.738Z,87.80
2023-05-19T00:52:11.751Z,85.13
2023-05-19T00:55:01.203Z,86.29
2023-05-19T00:57:50.997Z,88.16
2023-05-19T01:00:39.842Z,86.19
2023-05-19T01:03:31.160Z,87.01
2023-05-19T01:06:20.993Z,87.16
2023-05-19T01:09:09.124Z,88.91
2023-05-19T01:11:58.685Z,88.28
2023-05-19T01:14:46.723Z,87.57
2023-05-19T01:17:43.028Z,87.96
2023-05-19T01:20:38.573Z,87.51
2023-05-19T01:23:38.084Z,88.60
2023-05-19T01:26:45.834Z,90.51
2023-05-19T01:29:43.842Z,87.70
2023-05-19T01:32:34.990Z,88.95
2023-05-19T01:35:25.127Z,88.37
2023-05-19T01:38:17.723Z,89.54
2023-05-19T01:41:07.935Z,89.97
2023-05-19T01:43:57.130Z,87.60
2023-05-19T01:46:45.516Z,91.31
2023-05-19T01:49:35.072Z,88.85
2023-05-19T01:52:23.054Z,88.08
2023-05-19T01:55:11.490Z,88.97
2023-05-19T01:58:08.261Z,88.85
2023-05-19T02:01:04.411Z,88.98
2023-05-19T02:04:06.659Z,88.95
2023-05-19T02:07:03.279Z,88.01
2023-05-19T02:09:56.264Z,89.40
2023-05-19T02:12:47.122Z,88.76
2023-05-19T02:15:42.143Z,87.44
2023-05-19T02:18:31.075Z,89.92
2023-05-19T02:21:19.059Z,88.57
2023-05-19T02:24:09.054Z,89.19
2023-05-19T02:26:57.209Z,87.74
2023-05-19T02:29:45.259Z,88.44
2023-05-19T02:32:33.407Z,88.91
2023-05-19T02:35:21.753Z,90.94
2023-05-19T02:38:09.952Z,91.98
2023-05-19T02:40:59.439Z,87.69
2023-05-19T02:43:47.402Z,87.94
2023-05-19T02:46:35.536Z,88.61
2023-05-19T02:49:23.514Z,87.46
2023-05-19T02:52:12.144Z,87.43
2023-05-19T02:55:00.145Z,88.26
2023-05-19T02:57:49.487Z,86.68
2023-05-19T03:00:37.437Z,87.10
2023-05-19T03:03:26.042Z,92.65
2023-05-19T03:06:15.676Z,88.40
2023-05-19T03:09:03.750Z,90.30
2023-05-19T03:11:51.729Z,91.18
2023-05-19T03:14:41.267Z,89.07
2023-05-19T03:17:33.880Z,86.30
2023-05-19T03:20:22.020Z,88.25
2023-05-19T03:23:10.294Z,87.81
2023-05-19T03:25:58.221Z,87.79
2023-05-19T03:28:46.233Z,90.03
2023-05-19T03:31:35.668Z,88.41
2023-05-19T03:34:23.670Z,88.19
2023-05-19T03:37:12.979Z,89.34
2023-05-19T03:40:01.147Z,89.90
2023-05-19T03:42:49.289Z,90.46
2023-05-19T03:45:37.291Z,90.05
2023-05-19T03:48:26.876Z,89.39
2023-05-19T03:51:14.945Z,91.83
2023-05-19T03:54:02.888Z,89.50
2023-05-19T03:56:50.992Z,89.00
2023-05-19T03:59:41.356Z,92.21
2023-05-19T04:02:29.458Z,90.34
2023-05-19T04:05:18.926Z,89.90
2023-05-19T04:08:07.261Z,87.94
2023-05-19T04:10:55.245Z,89.22
2023-05-19T04:13:45.095Z,88.15
2023-05-19T04:16:33.785Z,88.19
2023-05-19T04:19:21.997Z,88.09
2023-05-19T04:22:11.413Z,87.85
2023-05-19T04:25:00.267Z,88.41
2023-05-19T04:27:48.839Z,88.61
2023-05-19T04:30:37.074Z,88.12
2023-05-19T04:33:25.158Z,88.92
2023-05-19T04:36:13.868Z,87.82
2023-05-19T04:39:06.383Z,87.60
2023-05-19T04:41:54.904Z,88.10
2023-05-19T04:44:42.940Z,88.18
2023-05-19T04:47:30.965Z,89.24
2023-05-19T04:50:19.126Z,86.73
2023-05-19T04:53:07.100Z,87.56
2023-05-19T04:55:56.815Z,87.11
2023-05-19T04:58:45.177Z,86.42
2023-05-19T05:01:33.955Z,87.65
2023-05-19T05:04:22.241Z,88.98
2023-05-19T05:07:10.435Z,88.58
2023-05-19T05:09:58.434Z,88.46
2023-05-19T05:12:48.590Z,89.42
2023-05-19T05:15:37.080Z,89.13
2023-05-19T05:18:25.536Z,88.51
2023-05-19T05:21:14.236Z,88.65
2023-05-19T05:24:03.951Z,88.00
2023-05-19T05:26:52.505Z,89.45
2023-05-19T05:29:41.919Z,89.06
2023-05-19T05:32:30.156Z,88.56
2023-05-19T05:35:18.394Z,88.07
2023-05-19T05:38:06.595Z,88.32
2023-05-19T05:40:54.595Z,90.03
2023-05-19T05:43:42.593Z,88.76
2023-05-19T05:46:33.954Z,88.19
2023-05-19T05:49:22.481Z,89.02
2023-05-19T05:52:13.380Z,89.38
2023-05-19T05:55:02.022Z,89.51
2023-05-19T05:57:50.662Z,89.74
2023-05-19T06:00:38.937Z,88.75
2023-05-19T06:03:28.323Z,89.00
2023-05-19T06:06:16.423Z,88.45
2023-05-19T06:09:04.411Z,86.38
2023-05-19T06:11:52.457Z,86.28
2023-05-19T06:14:40.661Z,85.08
2023-05-19T06:17:28.674Z,85.06
2023-05-19T06:20:20.027Z,85.95
2023-05-19T06:23:07.991Z,85.20
2023-05-19T06:25:56.136Z,84.46
2023-05-19T06:28:44.151Z,84.46
2023-05-19T06:31:33.494Z,84.15
2023-05-19T06:34:21.751Z,84.37
2023-05-19T06:37:11.314Z,84.95
2023-05-19T06:39:59.336Z,84.38
2023-05-19T06:42:47.407Z,84.69
2023-05-19T06:45:35.386Z,83.57
2023-05-19T06:48:23.418Z,83.76
2023-05-19T06:51:11.420Z,82.68
2023-05-19T06:54:00.814Z,82.60
2023-05-19T06:56:48.821Z,82.96
2023-05-19T06:59:37.595Z,82.65
2023-05-19T07:02:25.689Z,81.76
2023-05-19T07:05:13.704Z,81.34
2023-05-19T07:08:01.742Z,80.58
2023-05-19T07:10:51.159Z,82.38
2023-05-19T07:13:39.175Z,82.52
2023-05-19T07:16:27.210Z,80.63
2023-05-19T07:19:15.383Z,79.79
2023-05-19T07:22:03.436Z,78.14
2023-05-19T07:24:51.476Z,75.71
2023-05-19T07:27:40.945Z,75.59
2023-05-19T07:30:29.673Z,75.49
2023-05-19T07:33:17.801Z,74.53
2023-05-19T07:36:06.062Z,74.52
2023-05-19T07:38:54.030Z,75.37
2023-05-19T07:41:42.031Z,74.80
2023-05-19T07:44:32.175Z,73.63
2023-05-19T07:47:20.147Z,73.75
2023-05-19T07:50:09.022Z,73.55
2023-05-19T07:52:57.540Z,74.04
2023-05-19T07:55:45.612Z,72.16
2023-05-19T07:58:33.526Z,72.63
2023-05-19T08:01:22.880Z,72.75
2023-05-19T08:04:13.192Z,73.43
2023-05-19T08:07:01.358Z,73.13
2023-05-19T08:09:49.360Z,73.27
2023-05-19T08:12:37.401Z,74.36
2023-05-19T08:15:25.468Z,73.51
2023-05-19T08:18:14.880Z,73.10
2023-05-19T08:21:02.878Z,72.07
2023-05-19T08:23:51.308Z,72.21
2023-05-19T08:26:39.383Z,71.55
2023-05-19T08:29:27.403Z,70.98
2023-05-19T08:32:15.580Z,70.09
2023-05-19T08:35:05.454Z,69.90
2023-05-19T08:37:53.582Z,71.06
2023-05-19T08:40:43.015Z,70.73
2023-05-19T08:43:31.144Z,70.64
2023-05-19T08:46:19.215Z,70.71
2023-05-19T08:49:14.626Z,71.45
2023-05-19T08:52:16.393Z,69.85
2023-05-19T08:55:11.082Z,70.33
2023-05-19T08:57:59.325Z,69.56
2023-05-19T09:00:48.601Z,70.29
2023-05-19T09:03:38.521Z,70.01
2023-05-19T09:06:27.614Z,70.69
2023-05-19T09:09:17.422Z,72.02
2023-05-19T09:12:05.678Z,70.68
2023-05-19T09:14:54.236Z,70.84
2023-05-19T09:17:43.276Z,71.08
2023-05-19T09:20:32.035Z,71.40
2023-05-19T09:23:21.052Z,70.04
2023-05-19T09:26:10.911Z,70.66
2023-05-19T09:28:59.616Z,70.81
2023-05-19T09:31:51.860Z,70.65
2023-05-19T09:34:42.816Z,69.45
2023-05-19T09:37:31.120Z,69.90
2023-05-19T09:40:19.276Z,70.66
2023-05-19T09:43:09.716Z,71.23
2023-05-19T09:46:01.874Z,71.25
2023-05-19T09:48:50.720Z,70.94
2023-05-19T09:51:38.877Z,71.95
2023-05-19T09:54:29.703Z,71.54
2023-05-19T09:57:17.919Z,71.02
2023-05-19T10:00:14.326Z,70.28
2023-05-19T10:03:06.325Z,70.93
2023-05-19T10:05:54.907Z,72.53
2023-05-19T10:08:43.785Z,73.23
2023-05-19T10:11:32.568Z,74.19
2023-05-19T10:14:23.451Z,74.97
2023-05-19T10:17:14.587Z,72.24
2023-05-19T10:20:02.645Z,71.63
2023-05-19T10:22:50.962Z,70.84
2023-05-19T10:25:39.730Z,70.10
2023-05-19T10:28:36.253Z,70.67
2023-05-19T10:31:25.720Z,70.19
2023-05-19T10:34:37.487Z,69.15
2023-05-19T10:37:35.811Z,68.51
2023-05-19T10:40:29.712Z,67.37
2023-05-19T10:43:37.039Z,67.12
2023-05-19T10:46:26.418Z,68.18
2023-05-19T10:49:22.930Z,67.15
2023-05-19T10:52:23.111Z,67.31
2023-05-19T10:55:15.809Z,67.72
2023-05-19T10:58:03.926Z,67.74
2023-05-19T11:01:01.936Z,67.50
2023-05-19T11:03:52.356Z,65.46
2023-05-19T11:06:41.906Z,66.55
2023-05-19T11:12:24.672Z,61.95
2023-05-19T11:15:14.735Z,62.58
2023-05-19T11:18:03.449Z,61.42
2023-05-19T11:20:59.248Z,61.50
2023-05-19T11:23:48.682Z,60.60
2023-05-19T11:26:43.715Z,59.98
2023-05-19T11:29:34.722Z,59.83
2023-05-19T11:32:23.838Z,58.69
2023-05-19T11:35:12.205Z,58.25
2023-05-19T11:38:00.807Z,56.96
2023-05-19T11:40:50.914Z,54.34
2023-05-19T11:43:38.968Z,56.30
2023-05-19T11:46:27.019Z,57.55
2023-05-19T11:49:16.218Z,58.08
2023-05-19T11:52:05.228Z,58.02
2023-05-19T11:54:53.316Z,56.41
2023-05-19T11:57:56.057Z,57.15
2023-05-19T12:00:51.747Z,55.67
2023-05-19T12:03:39.875Z,55.22
2023-05-19T12:06:28.208Z,53.38
2023-05-19T12:09:16.631Z,52.37
2023-05-19T12:12:05.068Z,52.61
2023-05-19T12:14:54.519Z,53.27
2023-05-19T12:17:42.533Z,53.17
2023-05-19T12:20:32.657Z,53.00
2023-05-19T12:23:21.336Z,51.92
2023-05-19T12:26:09.720Z,53.09
2023-05-19T12:28:57.674Z,53.66
2023-05-19T12:31:49.366Z,52.44
2023-05-19T12:34:38.477Z,51.94
2023-05-19T12:37:28.034Z,52.08
2023-05-19T12:40:17.653Z,51.89
2023-05-19T12:43:06.854Z,51.00
2023-05-19T12:45:55.147Z,52.36
2023-05-19T12:48:45.136Z,53.29
2023-05-19T12:51:33.132Z,54.92
2023-05-19T12:54:22.310Z,55.36
2023-05-19T12:57:12.211Z,57.74
2023-05-19T13:00:06.982Z,63.89
2023-05-19T13:03:01.558Z,72.49
2023-05-19T13:05:52.208Z,79.55
2023-05-19T13:08:40.857Z,86.96
2023-05-19T13:11:29.239Z,90.45
2023-05-19T13:14:18.675Z,92.73
2023-05-19T13:17:06.797Z,92.86
2023-05-19T13:19:54.860Z,93.85
2023-05-19T13:22:44.283Z,93.24
2023-05-19T13:25:33.992Z,95.25
2023-05-19T13:28:21.980Z,99.97
2023-05-19T13:31:09.991Z,98.53
2023-05-19T13:33:58.076Z,96.92
2023-05-19T13:36:48.237Z,95.32
2023-05-19T13:39:37.767Z,95.30
2023-05-19T13:42:26.054Z,89.54
2023-05-19T13:45:14.083Z,93.02
2023-05-19T13:48:02.232Z,93.25
2023-05-19T13:50:52.524Z,94.24
2023-05-19T13:53:41.299Z,90.25
2023-05-19T13:56:31.640Z,87.14
2023-05-19T13:59:21.419Z,87.32
2023-05-19T14:02:09.589Z,88.14
2023-05-19T14:04:57.645Z,88.52
2023-05-19T14:07:46.402Z,88.84
2023-05-19T14:10:34.566Z,89.59
2023-05-19T14:16:15.341Z,88.45
2023-05-19T14:19:03.412Z,89.50
2023-05-19T14:21:51.767Z,88.58
2023-05-19T14:24:39.732Z,88.20
2023-05-19T14:27:27.698Z,86.61
2023-05-19T14:30:17.093Z,86.21
2023-05-19T14:33:05.311Z,86.61
2023-05-19T14:35:54.080Z,88.32
2023-05-19T14:38:42.283Z,90.61
2023-05-19T14:41:30.242Z,88.60
2023-05-19T14:44:18.190Z,88.67
2023-05-19T14:47:08.493Z,89.48
2023-05-19T14:49:56.642Z,87.59
2023-05-19T14:52:44.559Z,87.72
2023-05-19T14:55:32.599Z,87.47
2023-05-19T14:58:28.878Z,88.20
2023-05-19T15:01:17.464Z,86.44
2023-05-19T15:04:06.928Z,86.31
2023-05-19T15:07:05.858Z,88.19
2023-05-19T15:09:57.683Z,90.86
2023-05-19T15:12:46.661Z,90.00
2023-05-19T15:15:34.666Z,89.63
2023-05-19T15:18:22.843Z,90.74
2023-05-19T15:21:12.225Z,89.62
2023-05-19T15:24:00.160Z,88.00
2023-05-19T15:26:48.309Z,88.75
2023-05-19T15:29:36.601Z,88.65
2023-05-19T15:32:24.591Z,89.11
2023-05-19T15:35:12.558Z,89.33
2023-05-19T15:38:06.131Z,89.87
2023-05-19T15:40:54.137Z,90.50
2023-05-19T15:43:42.601Z,89.40
2023-05-19T15:46:30.953Z,89.15
2023-05-19T15:49:19.057Z,87.87
2023-05-19T15:52:07.702Z,87.39
2023-05-19T15:54:59.069Z,85.06
2023-05-19T15:57:47.086Z,88.19
2023-05-19T16:00:35.224Z,85.04
2023-05-19T16:03:23.535Z,84.16
2023-05-19T16:06:11.557Z,84.16
2023-05-19T16:08:59.550Z,81.29
2023-05-19T16:11:48.946Z,77.73
2023-05-19T16:14:37.925Z,79.30
2023-05-19T16:17:26.158Z,76.91
2023-05-19T16:20:14.674Z,78.72
2023-05-19T16:23:03.310Z,78.98
2023-05-19T16:25:51.502Z,77.61
2023-05-19T16:28:40.877Z,77.03
2023-05-19T16:31:28.801Z,77.49
2023-05-19T16:34:17.220Z,78.70
2023-05-19T16:37:05.592Z,80.64
2023-05-19T16:39:53.572Z,78.93
2023-05-19T16:42:41.602Z,79.76
2023-05-19T16:45:31.063Z,79.96
2023-05-19T16:48:18.951Z,80.49
2023-05-19T16:51:06.682Z,79.59
2023-05-19T16:53:54.581Z,79.48
2023-05-19T16:56:42.263Z,79.41
2023-05-19T16:59:30.050Z,78.13
2023-05-19T17:02:19.168Z,78.83
2023-05-19T17:05:07.438Z,80.96
2023-05-19T17:07:55.074Z,79.22
2023-05-19T17:10:42.817Z,79.78
2023-05-19T17:13:33.784Z,77.62
2023-05-19T17:16:24.670Z,77.99
2023-05-19T17:19:13.933Z,79.20
2023-05-19T17:22:01.686Z,78.35
2023-05-19T17:24:49.319Z,77.27
2023-05-19T17:27:37.091Z,77.92
2023-05-19T17:30:24.782Z,78.51
2023-05-19T17:33:15.559Z,77.50
2023-05-19T17:36:05.618Z,77.59
2023-05-19T17:38:53.367Z,78.17
2023-05-19T17:41:41.125Z,77.84
2023-05-19T17:44:28.862Z,78.50
2023-05-19T17:47:16.522Z,79.03
2023-05-19T17:50:04.390Z,81.33
2023-05-19T17:52:56.257Z,81.03
2023-05-19T17:55:50.865Z,80.24
2023-05-19T17:58:39.037Z,79.92
2023-05-19T18:01:28.973Z,79.07
2023-05-19T18:04:17.347Z,79.67
2023-05-19T18:07:08.039Z,82.18
2023-05-19T18:09:57.997Z,81.52
2023-05-19T18:12:46.022Z,82.88
2023-05-19T18:15:33.685Z,82.86
2023-05-19T18:18:21.439Z,80.51
2023-05-19T18:21:14.422Z,83.04
2023-05-19T18:24:03.097Z,83.77
2023-05-19T18:26:56.552Z,83.16
2023-05-19T18:29:44.226Z,84.00
2023-05-19T18:32:32.101Z,82.74
2023-05-19T18:35:22.184Z,82.50
2023-05-19T18:38:11.810Z,84.79
2023-05-19T18:41:00.847Z,84.46
2023-05-19T18:43:50.101Z,81.72
2023-05-19T18:46:37.786Z,80.67
2023-05-19T18:49:25.531Z,81.25
2023-05-19T18:52:13.346Z,80.88
2023-05-19T18:55:01.334Z,79.32
2023-05-19T18:57:49.075Z,80.27
2023-05-19T19:00:38.233Z,79.18
2023-05-19T19:03:26.641Z,79.54
2023-05-19T19:06:17.029Z,81.00
2023-05-19T19:09:04.959Z,80.54
2023-05-19T19:11:52.678Z,82.18
2023-05-19T19:14:40.436Z,80.96
2023-05-19T19:17:30.925Z,81.19
2023-05-19T19:20:18.953Z,82.96
2023-05-19T19:23:08.563Z,84.78
2023-05-19T19:25:57.162Z,85.51
2023-05-19T19:28:45.410Z,86.63
2023-05-19T19:31:36.199Z,86.70
2023-05-19T19:34:25.361Z,85.10
2023-05-19T19:37:14.514Z,86.16
2023-05-19T19:40:02.346Z,86.74
2023-05-19T19:42:50.108Z,85.29
2023-05-19T19:45:39.221Z,86.03
2023-05-19T19:48:26.910Z,86.80
2023-05-19T19:51:16.151Z,85.48
2023-05-19T19:54:03.835Z,85.12
2023-05-19T19:56:51.576Z,86.15
2023-05-19T19:59:46.038Z,85.40
2023-05-19T20:02:33.665Z,84.93
2023-05-19T20:05:21.611Z,83.86
2023-05-19T20:08:10.786Z,82.83
2023-05-19T20:10:58.579Z,83.34
2023-05-19T20:13:46.455Z,82.53
2023-05-19T20:16:34.372Z,82.27
2023-05-19T20:19:22.168Z,81.94
2023-05-19T20:22:09.930Z,82.26
2023-05-19T20:24:59.273Z,80.49
2023-05-19T20:27:47.226Z,80.62
2023-05-19T20:30:35.076Z,79.36
2023-05-19T20:33:23.026Z,81.37
2023-05-19T20:36:11.051Z,80.36
2023-05-19T20:38:58.829Z,80.61
2023-05-19T20:41:47.974Z,80.64
2023-05-19T20:44:35.789Z,83.83
2023-05-19T20:47:23.940Z,80.39
2023-05-19T20:50:11.933Z,80.49
2023-05-19T20:52:59.693Z,81.93
2023-05-19T20:55:47.437Z,80.11
2023-05-19T20:58:36.550Z,80.92
2023-05-19T21:01:25.480Z,81.38
2023-05-19T21:04:13.377Z,80.09
2023-05-19T21:07:01.384Z,80.96
2023-05-19T21:09:51.445Z,81.02
2023-05-19T21:12:39.287Z,80.36
2023-05-19T21:15:28.434Z,80.48
2023-05-19T21:18:16.238Z,79.64
2023-05-19T21:21:04.883Z,78.91
2023-05-19T21:23:52.564Z,80.14
2023-05-19T21:26:41.072Z,80.32
2023-05-19T21:29:28.902Z,79.55
2023-05-19T21:32:18.079Z,80.74
2023-05-19T21:35:07.253Z,81.06
2023-05-19T21:37:55.822Z,80.69
2023-05-19T21:40:43.611Z,82.91
2023-05-19T21:43:31.358Z,81.24
2023-05-19T21:46:19.144Z,80.61
2023-05-19T21:49:08.707Z,81.97
2023-05-19T21:51:56.469Z,82.71
2023-05-19T21:54:44.212Z,82.84
2023-05-19T21:57:32.287Z,82.99
2023-05-19T22:00:20.127Z,83.45
2023-05-19T22:03:08.205Z,83.89
2023-05-19T22:05:57.448Z,83.70
2023-05-19T22:08:45.218Z,83.72
2023-05-19T22:11:33.118Z,84.73
2023-05-19T22:14:20.821Z,86.39
2023-05-19T22:17:08.608Z,84.76
2023-05-19T22:19:56.339Z,84.23
2023-05-19T22:22:45.653Z,84.18
2023-05-19T22:25:33.559Z,85.16
2023-05-19T22:28:21.292Z,85.91
2023-05-19T22:31:09.100Z,87.20
2023-05-19T22:33:56.857Z,87.83
2023-05-19T22:36:46.047Z,87.76
2023-05-19T22:39:35.204Z,88.74
2023-05-19T22:42:23.025Z,88.15
2023-05-19T22:45:11.612Z,89.21
2023-05-19T22:47:59.458Z,89.38
2023-05-19T22:50:47.559Z,89.76
2023-05-19T22:53:35.326Z,90.04
2023-05-19T22:56:24.425Z,90.74
2023-05-19T22:59:12.608Z,90.57
2023-05-19T23:02:00.310Z,90.35
2023-05-19T23:04:48.036Z,89.67
2023-05-19T23:07:35.791Z,90.00
2023-05-19T23:10:23.850Z,89.56
2023-05-19T23:13:12.925Z,90.55
2023-05-19T23:16:00.848Z,89.34
2023-05-19T23:18:48.666Z,88.83
2023-05-19T23:21:36.445Z,88.17
2023-05-19T23:24:24.181Z,88.19
2023-05-19T23:27:11.920Z,88.49
2023-05-19T23:30:01.369Z,88.35
2023-05-19T23:32:49.164Z,87.75
2023-05-19T23:35:36.875Z,87.34
2023-05-19T23:38:24.570Z,86.94
2023-05-19T23:41:12.321Z,88.52
2023-05-19T23:44:00.321Z,87.38
2023-05-19T23:46:49.539Z,86.94
2023-05-19T23:49:37.299Z,87.45
2023-05-19T23:52:25.056Z,88.54
2023-05-19T23:55:13.722Z,86.63
2023-05-19T23:58:02.024Z,86.80
